Time;durP1;ratioP1;P1;durP2;ratioP2;P2;SDS_P1;SDS_P2;PMS_P1;PMS_P2;Temp;Humidity;BMP_temperature;BMP_pressure;BME280_temperature;BME280_humidity;BME280_pressure;Samples;Min_cycle;Max_cycle;Signal;HPM_P1;HPM_P2
2022/12/11 00:00:48;;;;;;;56.42;22.55;;;-0.20;99.90;;;;;;5024819;28;20041;-67
2022/12/11 00:03:16;;;;;;;54.53;21.67;;;-0.20;99.90;;;;;;5025372;28;20033;-65
2022/12/11 00:05:43;;;;;;;63.00;23.40;;;-0.20;99.90;;;;;;5028813;28;20038;-67
2022/12/11 00:08:08;;;;;;;62.05;25.00;;;-0.20;99.90;;;;;;5031737;28;20017;-66
2022/12/11 00:10:34;;;;;;;51.85;22.00;;;-0.30;99.90;;;;;;5028089;28;20503;-66
2022/12/11 00:13:00;;;;;;;66.88;24.50;;;-0.20;99.90;;;;;;5031519;28;20041;-67
2022/12/11 00:15:26;;;;;;;56.20;22.25;;;-0.20;99.90;;;;;;5026449;28;20029;-66
2022/12/11 00:17:52;;;;;;;54.03;22.63;;;-0.20;99.90;;;;;;5007184;28;20034;-66
2022/12/11 00:20:17;;;;;;;54.67;22.60;;;-0.20;99.90;;;;;;5025087;28;20064;-66
2022/12/11 00:22:43;;;;;;;51.50;24.17;;;-0.20;99.90;;;;;;5025495;28;20112;-67
2022/12/11 00:25:09;;;;;;;54.75;22.25;;;-0.20;99.90;;;;;;5025076;28;20040;-66
2022/12/11 00:27:34;;;;;;;64.82;23.08;;;-0.10;99.90;;;;;;5022221;28;20036;-66
2022/12/11 00:30:00;;;;;;;61.60;24.88;;;-0.10;99.90;;;;;;5027457;28;20171;-67
2022/12/11 00:32:26;;;;;;;64.63;22.83;;;-0.20;99.90;;;;;;5027864;28;20041;-66
2022/12/11 00:34:51;;;;;;;51.50;20.95;;;-0.10;99.90;;;;;;5029532;28;20042;-66
2022/12/11 00:37:17;;;;;;;48.88;20.70;;;-0.10;99.90;;;;;;5031234;28;20037;-65
2022/12/11 00:39:43;;;;;;;57.75;22.63;;;-0.10;99.90;;;;;;5027397;28;20052;-65
2022/12/11 00:42:08;;;;;;;54.85;23.15;;;-0.10;99.90;;;;;;5025375;28;20547;-67
2022/12/11 00:44:34;;;;;;;59.00;23.20;;;-0.10;99.90;;;;;;5027540;28;20028;-66
2022/12/11 00:47:00;;;;;;;49.13;22.45;;;-0.10;99.90;;;;;;5029215;28;20037;-66
2022/12/11 00:49:26;;;;;;;53.72;22.20;;;-0.10;99.90;;;;;;5031487;28;20855;-66
2022/12/11 00:51:51;;;;;;;49.45;21.15;;;-0.10;99.90;;;;;;5023991;28;20057;-65
2022/12/11 00:54:17;;;;;;;52.05;21.55;;;0.00;99.90;;;;;;5015744;28;20038;-67
2022/12/11 00:56:43;;;;;;;59.08;22.67;;;-0.10;99.90;;;;;;5023089;28;20041;-67
2022/12/11 00:59:08;;;;;;;58.72;22.08;;;0.00;99.90;;;;;;5027024;28;20041;-67
2022/12/11 01:01:34;;;;;;;56.65;23.35;;;-0.10;99.90;;;;;;5016654;28;20121;-67
2022/12/11 01:04:00;;;;;;;58.92;24.80;;;-0.10;99.90;;;;;;5020728;28;20088;-67
2022/12/11 01:06:27;;;;;;;65.43;22.75;;;-0.10;99.90;;;;;;5024951;28;20052;-67
2022/12/11 01:11:38;;;;;;;60.17;23.27;;;-0.10;99.90;;;;;;5021924;28;20040;-67
2022/12/11 01:14:04;;;;;;;54.33;21.85;;;-0.10;99.90;;;;;;5023821;28;20029;-67
2022/12/11 01:16:29;;;;;;;55.15;22.25;;;-0.20;99.90;;;;;;5023450;28;20545;-67
2022/12/11 01:18:56;;;;;;;60.92;22.35;;;-0.10;99.90;;;;;;5004656;28;20053;-67
2022/12/11 01:21:22;;;;;;;55.35;23.60;;;-0.10;99.90;;;;;;5027155;28;20034;-67
2022/12/11 01:23:49;;;;;;;50.20;21.73;;;-0.10;99.90;;;;;;5023067;28;20131;-66
2022/12/11 01:26:16;;;;;;;56.95;23.95;;;-0.10;99.90;;;;;;5013367;28;20048;-66
2022/12/11 01:28:42;;;;;;;54.50;23.95;;;-0.10;99.90;;;;;;5019184;28;20100;-67
2022/12/11 01:31:13;;;;;;;51.53;22.00;;;-0.10;99.90;;;;;;5028455;28;20109;-66
2022/12/11 01:33:39;;;;;;;59.95;23.10;;;-0.10;99.90;;;;;;5025469;28;20548;-65
2022/12/11 01:36:10;;;;;;;55.17;23.80;;;-0.10;99.90;;;;;;5028821;28;20907;-67
2022/12/11 01:38:35;;;;;;;58.83;22.52;;;-0.10;99.90;;;;;;5028276;28;20029;-67
2022/12/11 01:41:01;;;;;;;60.88;23.55;;;-0.10;99.90;;;;;;5029746;28;20164;-66
2022/12/11 01:43:27;;;;;;;57.35;23.17;;;-0.10;99.90;;;;;;5022805;28;20134;-67
2022/12/11 01:45:52;;;;;;;55.35;22.80;;;-0.10;99.90;;;;;;5019073;28;20083;-66
2022/12/11 01:48:26;;;;;;;61.40;22.45;;;0.00;99.90;;;;;;5022697;28;20025;-67
2022/12/11 01:51:03;;;;;;;60.03;23.33;;;0.00;99.90;;;;;;5015893;28;20052;-67
2022/12/11 01:53:40;;;;;;;51.40;23.30;;;0.00;99.90;;;;;;5014978;28;20317;-66
2022/12/11 01:56:07;;;;;;;58.35;22.50;;;-0.10;99.90;;;;;;5009811;28;20073;-67
2022/12/11 01:58:37;;;;;;;55.40;22.88;;;-0.10;99.90;;;;;;5018281;28;20492;-68
2022/12/11 02:01:03;;;;;;;57.13;23.33;;;-0.10;99.90;;;;;;5024408;28;20553;-67
2022/12/11 02:03:28;;;;;;;50.47;21.48;;;-0.10;99.90;;;;;;5018957;28;20025;-66
2022/12/11 02:05:58;;;;;;;57.78;22.77;;;-0.10;99.90;;;;;;5024816;28;20026;-66
2022/12/11 02:08:24;;;;;;;59.92;22.40;;;0.00;99.90;;;;;;5015008;28;20030;-67
2022/12/11 02:11:14;;;;;;;58.28;24.95;;;-0.10;99.90;;;;;;5022626;28;20018;-66
2022/12/11 02:13:53;;;;;;;48.95;20.13;;;-0.10;99.90;;;;;;5017496;28;20030;-66
2022/12/11 02:16:32;;;;;;;46.92;22.25;;;0.00;99.90;;;;;;5015384;28;20033;-66
2022/12/11 02:19:09;;;;;;;58.22;23.48;;;0.00;99.90;;;;;;4993275;28;20780;-68
2022/12/11 02:21:42;;;;;;;56.38;21.40;;;0.00;99.90;;;;;;5018117;28;20091;-67
2022/12/11 02:24:31;;;;;;;60.40;22.33;;;0.00;99.90;;;;;;5022817;28;20038;-67
2022/12/11 02:27:27;;;;;;;67.68;23.95;;;0.00;99.90;;;;;;5027289;28;20029;-68
2022/12/11 02:30:10;;;;;;;51.20;21.95;;;0.00;99.90;;;;;;5023639;28;20048;-67
2022/12/11 02:32:44;;;;;;;56.53;21.88;;;0.00;99.90;;;;;;5025125;28;20635;-66
2022/12/11 02:35:14;;;;;;;57.17;22.85;;;0.10;99.90;;;;;;5028697;28;20075;-67
2022/12/11 02:37:43;;;;;;;55.22;22.55;;;0.00;99.90;;;;;;5014373;28;20117;-66
2022/12/11 02:40:12;;;;;;;52.78;24.02;;;0.10;99.90;;;;;;5025047;28;20021;-66
2022/12/11 02:42:41;;;;;;;54.65;22.58;;;0.10;99.90;;;;;;5025054;28;20029;-67
2022/12/11 02:45:09;;;;;;;56.47;23.63;;;0.10;99.90;;;;;;5027944;28;20108;-67
2022/12/11 02:47:36;;;;;;;58.47;25.92;;;0.00;99.90;;;;;;5020204;28;20030;-66
2022/12/11 02:50:08;;;;;;;62.97;23.80;;;0.00;99.90;;;;;;5021735;28;20490;-67
2022/12/11 02:52:36;;;;;;;50.53;21.02;;;0.00;99.90;;;;;;5016780;28;20021;-67
2022/12/11 02:55:03;;;;;;;51.00;21.05;;;0.00;99.90;;;;;;5018036;28;20021;-67
2022/12/11 02:58:00;;;;;;;53.33;23.08;;;0.00;99.90;;;;;;5027418;28;20033;-67
2022/12/11 03:00:26;;;;;;;53.30;22.33;;;0.10;99.90;;;;;;5015797;28;20456;-67
2022/12/11 03:02:52;;;;;;;47.75;21.13;;;0.00;99.90;;;;;;5021519;28;20057;-68
2022/12/11 03:05:17;;;;;;;50.83;22.17;;;0.00;99.90;;;;;;5024020;28;20025;-66
2022/12/11 03:07:44;;;;;;;59.10;24.90;;;0.00;99.90;;;;;;5023724;28;20021;-66
2022/12/11 03:10:13;;;;;;;62.38;23.60;;;0.00;99.90;;;;;;5011560;28;20036;-66
2022/12/11 03:12:42;;;;;;;51.88;22.88;;;0.00;99.90;;;;;;5015799;28;20041;-66
2022/12/11 03:15:12;;;;;;;54.88;23.55;;;0.00;99.90;;;;;;5009468;28;20021;-66
2022/12/11 03:18:02;;;;;;;57.20;23.25;;;0.00;99.90;;;;;;5018288;28;20014;-67
2022/12/11 03:20:40;;;;;;;57.70;22.58;;;0.00;99.90;;;;;;5021342;28;20021;-66
2022/12/11 03:23:20;;;;;;;53.25;23.25;;;0.00;99.90;;;;;;5022014;28;20483;-66
2022/12/11 03:25:51;;;;;;;57.72;22.20;;;0.00;99.90;;;;;;5026782;28;20075;-66
2022/12/11 03:28:32;;;;;;;61.13;24.15;;;0.00;99.90;;;;;;5032041;28;20041;-67
2022/12/11 03:31:06;;;;;;;63.72;23.45;;;0.00;99.90;;;;;;5025824;28;20026;-66
2022/12/11 03:33:36;;;;;;;44.75;17.00;;;0.00;99.90;;;;;;5026923;28;20025;-67
2022/12/11 03:36:11;;;;;;;63.38;22.83;;;-0.10;99.90;;;;;;5020768;28;20553;-66
2022/12/11 03:38:45;;;;;;;61.20;26.30;;;-0.10;99.90;;;;;;5030335;28;20053;-66
2022/12/11 03:41:13;;;;;;;57.88;24.08;;;-0.10;99.90;;;;;;5030051;28;20487;-67
2022/12/11 03:43:40;;;;;;;55.42;22.05;;;-0.10;99.90;;;;;;5023690;28;20124;-66
2022/12/11 03:46:08;;;;;;;59.13;23.42;;;-0.10;99.90;;;;;;5030820;28;20040;-66
2022/12/11 03:48:36;;;;;;;62.53;25.25;;;-0.10;99.90;;;;;;5022777;28;20057;-66
2022/12/11 03:51:05;;;;;;;65.28;25.60;;;-0.10;99.90;;;;;;5017184;28;20076;-66
2022/12/11 03:53:33;;;;;;;72.82;23.92;;;-0.10;99.90;;;;;;5013972;28;20967;-66
2022/12/11 03:56:00;;;;;;;56.33;24.20;;;0.00;99.90;;;;;;5012688;28;20033;-67
2022/12/11 03:58:26;;;;;;;60.25;24.90;;;0.00;99.90;;;;;;5020600;28;20025;-66
2022/12/11 04:00:51;;;;;;;65.22;24.58;;;-0.10;99.90;;;;;;5026241;28;20029;-66
2022/12/11 04:03:17;;;;;;;68.57;25.45;;;0.00;99.90;;;;;;5026410;28;20091;-66
2022/12/11 04:05:45;;;;;;;60.10;23.13;;;0.00;99.90;;;;;;5021442;28;20057;-66
2022/12/11 04:08:12;;;;;;;66.22;22.95;;;0.00;99.90;;;;;;5016062;28;20026;-66
2022/12/11 04:10:39;;;;;;;67.53;26.83;;;0.10;99.90;;;;;;5015004;28;20080;-66
2022/12/11 04:13:04;;;;;;;64.70;24.38;;;0.00;99.90;;;;;;5016975;28;20447;-65
2022/12/11 04:15:30;;;;;;;67.25;23.83;;;0.00;99.90;;;;;;5018356;28;20037;-67
2022/12/11 04:26:14;;;;;;;56.97;22.35;;;0.10;99.90;;;;;;5013467;28;20122;-67
2022/12/11 04:28:40;;;;;;;64.75;24.23;;;0.20;99.90;;;;;;5015017;28;20096;-66
2022/12/11 04:31:09;;;;;;;71.07;26.25;;;0.10;99.90;;;;;;5016369;28;20045;-67
2022/12/11 04:33:35;;;;;;;70.53;26.08;;;0.20;99.90;;;;;;5013573;28;20105;-66
2022/12/11 04:36:01;;;;;;;71.97;27.55;;;0.10;99.90;;;;;;5023733;28;20447;-66
2022/12/11 04:38:26;;;;;;;62.58;25.35;;;0.10;99.90;;;;;;5022161;28;20029;-66
2022/12/11 04:41:11;;;;;;;71.50;27.13;;;0.10;99.90;;;;;;5023346;28;20035;-66
2022/12/11 04:43:36;;;;;;;61.72;24.35;;;0.10;99.90;;;;;;5029275;28;20492;-67
2022/12/11 04:46:08;;;;;;;72.43;25.80;;;0.10;99.90;;;;;;5029901;28;20034;-66
2022/12/11 04:48:34;;;;;;;54.92;22.65;;;0.10;99.90;;;;;;5021573;28;20505;-66
2022/12/11 04:51:00;;;;;;;75.75;26.75;;;0.10;99.90;;;;;;5023754;28;20428;-66
2022/12/11 04:53:26;;;;;;;83.00;30.88;;;0.10;99.90;;;;;;5026424;28;20033;-67
2022/12/11 04:55:52;;;;;;;104.18;38.17;;;0.00;99.90;;;;;;5025239;28;20038;-66
2022/12/11 04:58:17;;;;;;;63.92;27.90;;;0.00;99.90;;;;;;5018015;28;20438;-67
2022/12/11 05:00:43;;;;;;;76.47;27.35;;;0.00;99.90;;;;;;5022257;28;20029;-66
2022/12/11 05:03:09;;;;;;;68.20;24.13;;;0.00;99.90;;;;;;5023970;28;20033;-67
2022/12/11 05:05:35;;;;;;;72.68;27.08;;;0.10;99.90;;;;;;5029175;28;20469;-67
2022/12/11 05:08:00;;;;;;;69.68;27.23;;;0.00;99.90;;;;;;5023591;28;20022;-67
2022/12/11 05:10:26;;;;;;;74.95;28.48;;;0.00;99.90;;;;;;5030443;28;20057;-67
2022/12/11 05:12:51;;;;;;;80.68;30.13;;;0.10;99.90;;;;;;5024542;28;20049;-66
2022/12/11 05:15:17;;;;;;;95.45;31.50;;;0.10;99.90;;;;;;5025655;28;20084;-67
2022/12/11 05:17:42;;;;;;;103.80;37.17;;;0.10;99.90;;;;;;5026430;28;20021;-65
2022/12/11 05:20:09;;;;;;;69.00;27.38;;;0.10;99.90;;;;;;5031944;28;20029;-66
2022/12/11 05:22:35;;;;;;;80.85;26.10;;;0.10;99.90;;;;;;5021629;28;20072;-67
2022/12/11 05:25:01;;;;;;;66.45;27.92;;;0.10;99.90;;;;;;5028560;28;20482;-67
2022/12/11 05:27:26;;;;;;;67.80;24.90;;;0.20;99.90;;;;;;5022705;28;20029;-66
2022/12/11 05:29:52;;;;;;;72.57;26.20;;;0.20;99.90;;;;;;5029963;28;20047;-66
2022/12/11 05:32:18;;;;;;;81.25;26.52;;;0.20;99.90;;;;;;5027682;28;20037;-66
2022/12/11 05:34:43;;;;;;;90.40;28.13;;;0.20;99.90;;;;;;5015406;28;20029;-67
2022/12/11 05:37:09;;;;;;;77.35;27.00;;;0.20;99.90;;;;;;5017495;28;20120;-66
2022/12/11 05:39:34;;;;;;;81.47;28.05;;;0.20;99.90;;;;;;5019381;28;20393;-66
2022/12/11 05:42:00;;;;;;;80.20;27.27;;;0.20;99.90;;;;;;5026890;28;20036;-67
2022/12/11 05:44:26;;;;;;;78.05;27.10;;;0.10;99.90;;;;;;5019124;28;20037;-67
2022/12/11 05:46:51;;;;;;;79.32;26.58;;;0.10;99.90;;;;;;5018915;28;20869;-67
2022/12/11 05:49:17;;;;;;;80.70;28.45;;;0.10;99.90;;;;;;5020076;28;20141;-66
2022/12/11 05:51:42;;;;;;;70.30;26.75;;;0.10;99.90;;;;;;5026950;28;20112;-66
2022/12/11 05:54:09;;;;;;;79.60;26.85;;;0.10;99.90;;;;;;5028421;28;20033;-67
2022/12/11 05:56:35;;;;;;;78.72;28.42;;;0.10;99.90;;;;;;5026205;28;20148;-66
2022/12/11 05:59:03;;;;;;;81.03;27.45;;;0.10;99.90;;;;;;5022199;28;20033;-66
2022/12/11 06:01:40;;;;;;;89.10;29.13;;;0.10;99.90;;;;;;5019938;28;20025;-66
2022/12/11 06:04:08;;;;;;;92.07;28.27;;;0.10;99.90;;;;;;5017660;28;20029;-66
2022/12/11 06:06:34;;;;;;;67.97;25.42;;;0.10;99.90;;;;;;5018239;28;20026;-67
2022/12/11 06:09:00;;;;;;;79.22;27.75;;;0.20;99.90;;;;;;5021989;28;20025;-66
2022/12/11 06:11:27;;;;;;;73.07;26.10;;;0.10;99.90;;;;;;5019343;28;20100;-67
2022/12/11 06:13:53;;;;;;;93.97;28.88;;;0.10;99.90;;;;;;5018052;28;20044;-65
2022/12/11 06:16:20;;;;;;;78.82;27.98;;;0.20;99.90;;;;;;5019924;28;20029;-67
2022/12/11 06:18:45;;;;;;;80.78;26.65;;;0.20;99.90;;;;;;5016278;28;20551;-66
2022/12/11 06:21:44;;;;;;;82.13;26.23;;;0.20;99.90;;;;;;5021456;28;20128;-66
2022/12/11 06:24:10;;;;;;;83.03;28.38;;;0.20;99.90;;;;;;5010197;28;20044;-67
2022/12/11 06:26:36;;;;;;;89.28;27.17;;;0.20;99.90;;;;;;5019901;28;20034;-66
2022/12/11 06:29:02;;;;;;;72.95;25.67;;;0.20;99.90;;;;;;5020881;28;20044;-67
2022/12/11 06:31:27;;;;;;;70.00;25.90;;;0.20;99.90;;;;;;5020619;28;20498;-66
2022/12/11 06:33:53;;;;;;;68.78;24.83;;;0.20;99.90;;;;;;5023959;28;20107;-66
2022/12/11 06:36:20;;;;;;;78.00;25.20;;;0.20;99.90;;;;;;5027883;28;20029;-67
2022/12/11 06:38:49;;;;;;;65.95;25.17;;;0.20;99.90;;;;;;5015683;28;20061;-66
2022/12/11 06:41:15;;;;;;;65.95;25.67;;;0.20;99.90;;;;;;5017318;28;20021;-66
2022/12/11 06:43:41;;;;;;;78.63;25.73;;;0.20;99.90;;;;;;5023461;28;20056;-66
2022/12/11 06:46:10;;;;;;;82.53;27.55;;;0.20;99.90;;;;;;5022156;28;20075;-68
2022/12/11 06:48:37;;;;;;;90.35;24.15;;;0.20;99.90;;;;;;5027162;28;20305;-67
2022/12/11 06:51:07;;;;;;;85.03;26.48;;;0.10;99.90;;;;;;5026969;28;20091;-67
2022/12/11 06:53:33;;;;;;;78.43;26.67;;;0.10;99.90;;;;;;5027256;28;20043;-67
2022/12/11 06:56:12;;;;;;;78.35;25.27;;;0.20;99.90;;;;;;5029758;28;20052;-67
2022/12/11 06:58:38;;;;;;;74.95;25.98;;;0.20;99.90;;;;;;5023238;28;20025;-67
2022/12/11 07:01:12;;;;;;;78.15;25.52;;;0.20;99.90;;;;;;5016046;28;20037;-67
2022/12/11 07:03:37;;;;;;;80.05;26.48;;;0.30;99.90;;;;;;5024655;28;20674;-67
2022/12/11 07:06:04;;;;;;;92.10;28.65;;;0.20;99.90;;;;;;5018956;28;20072;-67
2022/12/11 07:08:30;;;;;;;78.18;28.02;;;0.30;99.90;;;;;;5024019;28;20025;-66
2022/12/11 07:11:08;;;;;;;85.50;28.42;;;0.20;99.90;;;;;;5022447;28;20026;-67
2022/12/11 07:13:34;;;;;;;78.43;26.42;;;0.30;99.90;;;;;;5026863;28;20124;-67
2022/12/11 07:16:03;;;;;;;87.47;28.00;;;0.20;99.90;;;;;;5028598;28;20029;-67
2022/12/11 07:18:29;;;;;;;89.07;26.83;;;0.20;99.90;;;;;;5019901;28;20045;-67
2022/12/11 07:20:58;;;;;;;87.70;27.13;;;0.20;99.90;;;;;;5018734;28;20053;-66
2022/12/11 07:23:25;;;;;;;93.07;27.10;;;0.30;99.90;;;;;;5016676;28;20080;-66
2022/12/11 07:25:50;;;;;;;100.20;28.73;;;0.30;99.90;;;;;;5024900;28;20032;-64
2022/12/11 07:28:16;;;;;;;77.22;27.90;;;0.30;99.90;;;;;;5027920;28;20041;-67
2022/12/11 07:30:41;;;;;;;87.38;26.85;;;0.20;99.90;;;;;;5025116;28;20021;-68
2022/12/11 07:33:07;;;;;;;92.93;27.80;;;0.20;99.90;;;;;;5028372;28;20033;-68
2022/12/11 07:35:35;;;;;;;75.32;25.60;;;0.20;99.90;;;;;;5018254;28;20038;-67
2022/12/11 07:38:01;;;;;;;76.45;24.40;;;0.20;99.90;;;;;;5011476;28;20076;-66
2022/12/11 07:40:26;;;;;;;84.68;29.65;;;0.20;99.90;;;;;;5022140;28;20109;-67
2022/12/11 07:42:52;;;;;;;85.63;26.48;;;0.20;99.90;;;;;;5026903;28;20052;-67
2022/12/11 07:45:18;;;;;;;80.25;26.88;;;0.20;99.90;;;;;;5011876;28;20041;-67
2022/12/11 07:47:43;;;;;;;78.63;26.27;;;0.20;99.90;;;;;;5023551;28;20041;-66
2022/12/11 07:50:09;;;;;;;75.80;25.35;;;0.20;99.90;;;;;;5025253;28;20045;-66
2022/12/11 07:52:34;;;;;;;79.43;25.38;;;0.30;99.90;;;;;;5025346;28;20034;-67
2022/12/11 07:55:00;;;;;;;87.90;25.48;;;0.30;99.90;;;;;;5017151;28;20384;-67
2022/12/11 07:57:26;;;;;;;85.43;27.90;;;0.30;99.90;;;;;;5017942;28;20040;-67
2022/12/11 07:59:52;;;;;;;93.88;30.05;;;0.30;99.90;;;;;;5019457;28;20042;-64
2022/12/11 08:02:17;;;;;;;96.40;29.65;;;0.30;99.90;;;;;;5017586;28;20025;-66
2022/12/11 08:04:43;;;;;;;90.50;26.98;;;0.30;99.90;;;;;;5022624;28;20506;-68
2022/12/11 08:07:09;;;;;;;81.47;26.65;;;0.30;99.90;;;;;;5019583;28;20030;-67
2022/12/11 08:09:34;;;;;;;85.65;27.25;;;0.30;99.90;;;;;;5026353;28;20092;-66
2022/12/11 08:12:00;;;;;;;84.05;28.30;;;0.30;99.90;;;;;;5031959;28;20036;-66
2022/12/11 08:14:25;;;;;;;78.43;27.25;;;0.30;99.90;;;;;;5030930;28;20494;-67
2022/12/11 08:16:51;;;;;;;89.82;25.42;;;0.30;99.90;;;;;;5018256;28;20582;-67
2022/12/11 08:19:17;;;;;;;78.55;27.75;;;0.30;99.90;;;;;;5026781;28;20056;-67
2022/12/11 08:21:43;;;;;;;83.88;26.83;;;0.30;99.90;;;;;;5024716;28;20030;-67
2022/12/11 08:24:09;;;;;;;81.63;25.17;;;0.30;99.90;;;;;;5020010;28;20079;-67
2022/12/11 08:26:35;;;;;;;76.00;24.42;;;0.30;99.90;;;;;;5028600;28;20053;-67
2022/12/11 08:29:01;;;;;;;86.72;25.20;;;0.30;99.90;;;;;;5019384;28;20193;-67
2022/12/11 08:31:27;;;;;;;79.40;23.80;;;0.30;99.90;;;;;;5029617;28;20042;-67
2022/12/11 08:33:54;;;;;;;83.20;26.08;;;0.30;99.90;;;;;;5030187;28;20029;-66
2022/12/11 08:36:21;;;;;;;83.50;26.33;;;0.40;99.90;;;;;;5028146;28;20033;-67
2022/12/11 08:38:47;;;;;;;79.72;23.67;;;0.50;99.90;;;;;;5015874;28;20396;-67
2022/12/11 08:41:18;;;;;;;81.13;25.35;;;0.50;99.90;;;;;;5016647;28;20037;-67
2022/12/11 08:43:44;;;;;;;76.35;23.80;;;0.50;99.90;;;;;;5024727;28;20487;-67
2022/12/11 08:46:11;;;;;;;87.45;25.33;;;0.60;99.90;;;;;;5029928;28;20163;-67
2022/12/11 08:48:39;;;;;;;81.40;24.65;;;0.50;99.90;;;;;;5029646;28;20025;-66
2022/12/11 08:51:06;;;;;;;88.90;28.33;;;0.50;99.90;;;;;;5027619;28;20030;-66
2022/12/11 08:53:32;;;;;;;72.63;25.08;;;0.50;99.90;;;;;;5024299;28;20042;-66
2022/12/11 08:56:03;;;;;;;85.25;24.05;;;0.60;99.90;;;;;;5027754;28;20483;-65
2022/12/11 08:58:28;;;;;;;78.88;23.63;;;0.60;99.90;;;;;;5027901;28;20033;-67
2022/12/11 09:00:54;;;;;;;85.80;25.90;;;0.70;99.90;;;;;;5024507;28;20041;-67
2022/12/11 09:03:20;;;;;;;81.78;24.55;;;0.70;99.90;;;;;;5030788;28;20041;-68
2022/12/11 09:05:45;;;;;;;80.85;23.40;;;0.70;99.90;;;;;;5028742;28;20034;-66
2022/12/11 09:08:11;;;;;;;68.88;22.48;;;0.80;99.90;;;;;;5030471;28;20117;-66
2022/12/11 09:10:37;;;;;;;79.93;22.02;;;0.90;99.90;;;;;;5018910;28;20026;-66
2022/12/11 09:13:02;;;;;;;76.75;23.10;;;0.80;99.90;;;;;;5026590;28;20116;-66
2022/12/11 09:15:28;;;;;;;87.65;22.50;;;0.90;99.90;;;;;;5027023;28;20425;-67
2022/12/11 09:17:54;;;;;;;72.60;21.30;;;0.80;99.90;;;;;;5014047;28;20030;-66
2022/12/11 09:20:19;;;;;;;66.88;20.73;;;0.80;99.90;;;;;;5024039;28;20095;-66
2022/12/11 09:22:45;;;;;;;68.95;22.40;;;0.80;99.90;;;;;;5019509;28;20026;-66
2022/12/11 09:25:10;;;;;;;78.28;21.95;;;0.90;99.90;;;;;;5023467;28;20030;-68
2022/12/11 09:27:36;;;;;;;79.85;22.90;;;0.90;99.90;;;;;;5024204;28;20457;-68
2022/12/11 09:30:02;;;;;;;72.18;21.83;;;0.90;99.90;;;;;;5028708;28;20033;-67
2022/12/11 09:32:27;;;;;;;79.93;22.42;;;0.90;99.90;;;;;;5020466;28;20060;-68
2022/12/11 09:34:53;;;;;;;64.85;20.13;;;0.90;99.90;;;;;;5027327;28;20048;-67
2022/12/11 09:37:18;;;;;;;84.25;21.58;;;1.00;99.90;;;;;;5029620;28;22131;-67
2022/12/11 09:39:44;;;;;;;67.65;21.35;;;0.90;99.90;;;;;;5021678;28;20404;-67
2022/12/11 09:42:28;;;;;;;67.90;21.20;;;0.90;99.90;;;;;;5026520;28;20044;-67
2022/12/11 09:44:56;;;;;;;57.75;17.73;;;0.90;99.90;;;;;;5019489;28;20041;-66
2022/12/11 09:47:37;;;;;;;68.90;21.13;;;1.00;99.90;;;;;;5023801;28;20021;-66
2022/12/11 09:50:15;;;;;;;68.43;20.45;;;0.90;99.90;;;;;;5023043;28;20025;-67
2022/12/11 09:53:12;;;;;;;79.50;20.52;;;0.90;99.90;;;;;;5025412;28;20029;-67
2022/12/11 09:56:20;;;;;;;63.67;20.52;;;0.90;99.90;;;;;;5019879;28;20041;-67
2022/12/11 09:58:54;;;;;;;77.55;22.13;;;0.90;99.90;;;;;;5023907;28;20033;-67
2022/12/11 10:01:42;;;;;;;62.80;20.92;;;0.90;99.90;;;;;;5015307;28;20021;-67
2022/12/11 10:04:39;;;;;;;68.78;20.17;;;1.00;99.90;;;;;;5019700;28;20104;-67
2022/12/11 10:07:20;;;;;;;75.63;22.05;;;1.00;99.90;;;;;;5022641;28;20443;-67
2022/12/11 10:09:49;;;;;;;67.18;20.92;;;1.10;99.90;;;;;;5023832;28;20021;-65
2022/12/11 10:12:41;;;;;;;68.70;20.98;;;1.10;99.90;;;;;;5019967;28;20022;-66
2022/12/11 10:15:36;;;;;;;66.95;19.92;;;1.00;99.90;;;;;;5029282;28;20033;-67
2022/12/11 10:18:07;;;;;;;66.50;21.70;;;1.10;99.90;;;;;;5017916;28;20033;-67
2022/12/11 10:20:38;;;;;;;77.65;23.55;;;1.00;99.90;;;;;;5021755;28;20402;-67
2022/12/11 10:23:06;;;;;;;64.95;23.20;;;1.10;99.90;;;;;;5028274;28;20462;-66
2022/12/11 10:25:54;;;;;;;61.50;22.00;;;1.20;99.90;;;;;;5029896;28;20141;-66
2022/12/11 10:28:20;;;;;;;65.88;22.05;;;1.30;99.90;;;;;;5019586;28;20533;-67
2022/12/11 10:31:05;;;;;;;63.35;19.50;;;1.40;99.90;;;;;;5028263;28;20024;-67
2022/12/11 10:33:59;;;;;;;59.63;19.65;;;1.40;99.90;;;;;;5020189;28;20033;-67
2022/12/11 10:36:29;;;;;;;62.88;18.88;;;1.30;99.90;;;;;;5024785;28;20068;-67
2022/12/11 10:38:55;;;;;;;59.75;18.40;;;1.30;99.90;;;;;;5020338;28;20388;-68
2022/12/11 10:41:23;;;;;;;56.00;17.92;;;1.40;99.90;;;;;;5028203;28;20435;-66
2022/12/11 10:43:52;;;;;;;64.80;17.45;;;1.40;99.90;;;;;;5027484;28;20044;-67
2022/12/11 10:46:26;;;;;;;47.35;15.32;;;1.50;99.90;;;;;;5024318;28;20033;-66
2022/12/11 10:48:52;;;;;;;45.67;17.13;;;1.50;99.90;;;;;;5021295;28;20036;-67
2022/12/11 10:51:21;;;;;;;43.00;14.75;;;1.50;99.90;;;;;;5027427;28;20021;-67
2022/12/11 10:53:57;;;;;;;49.33;16.48;;;1.40;99.90;;;;;;5021244;28;20029;-66
2022/12/11 10:56:28;;;;;;;52.17;17.67;;;1.50;99.90;;;;;;5016845;28;20041;-67
2022/12/11 10:58:55;;;;;;;43.30;15.13;;;1.50;99.90;;;;;;5022216;28;20028;-66
2022/12/11 11:01:23;;;;;;;43.45;15.82;;;1.60;99.90;;;;;;5014887;28;20022;-66
2022/12/11 11:04:01;;;;;;;54.13;16.15;;;1.60;99.90;;;;;;5025718;28;20033;-66
2022/12/11 11:06:27;;;;;;;46.33;16.30;;;1.50;99.90;;;;;;5025466;28;20104;-67
2022/12/11 11:08:59;;;;;;;52.45;16.02;;;1.40;99.90;;;;;;5027209;28;20090;-66
2022/12/11 11:11:36;;;;;;;43.55;15.73;;;1.50;99.90;;;;;;5026584;28;20025;-67
2022/12/11 11:14:15;;;;;;;47.72;15.45;;;1.50;99.90;;;;;;5021450;28;20025;-67
2022/12/11 11:16:44;;;;;;;50.78;16.33;;;1.60;99.90;;;;;;5016587;28;20022;-66
2022/12/11 11:19:30;;;;;;;45.58;16.50;;;1.50;99.90;;;;;;5018889;28;20026;-66
2022/12/11 11:22:00;;;;;;;49.40;15.18;;;1.50;99.90;;;;;;5020431;28;20034;-65
2022/12/11 11:24:48;;;;;;;40.55;15.57;;;1.70;99.90;;;;;;5022173;28;20037;-67
2022/12/11 11:27:21;;;;;;;44.80;16.10;;;1.70;99.90;;;;;;5011125;28;20052;-65
2022/12/11 11:29:46;;;;;;;43.20;15.90;;;1.70;99.90;;;;;;5019843;28;20026;-67
2022/12/11 11:32:18;;;;;;;42.25;15.35;;;1.60;99.90;;;;;;5028327;28;20095;-68
2022/12/11 11:34:43;;;;;;;40.90;15.48;;;1.70;99.90;;;;;;5019258;28;20065;-66
2022/12/11 11:37:30;;;;;;;51.92;15.77;;;1.70;99.90;;;;;;5020903;28;20431;-66
2022/12/11 11:40:02;;;;;;;47.97;16.40;;;1.70;99.90;;;;;;5023240;28;20037;-64
2022/12/11 11:43:02;;;;;;;44.95;15.00;;;1.70;99.90;;;;;;5015358;28;20050;-67
2022/12/11 11:45:32;;;;;;;49.63;15.75;;;1.80;99.90;;;;;;5007003;28;20140;-67
2022/12/11 11:48:17;;;;;;;38.60;13.48;;;1.70;99.90;;;;;;5018316;28;20105;-66
2022/12/11 11:50:45;;;;;;;40.40;14.07;;;1.80;99.90;;;;;;5019363;28;20571;-67
2022/12/11 11:53:23;;;;;;;46.08;14.80;;;1.80;99.90;;;;;;5018346;28;20030;-66
2022/12/11 11:56:13;;;;;;;46.85;15.50;;;1.70;99.90;;;;;;5015813;28;20036;-67
2022/12/11 11:58:46;;;;;;;46.72;15.68;;;1.60;99.90;;;;;;5025192;28;20413;-67
2022/12/11 12:01:15;;;;;;;37.10;15.30;;;1.60;99.90;;;;;;5026711;28;20086;-66
2022/12/11 12:03:41;;;;;;;45.78;16.95;;;1.60;99.90;;;;;;5023473;28;20145;-67
2022/12/11 12:06:12;;;;;;;42.60;16.63;;;1.50;99.90;;;;;;5024561;28;20030;-67
2022/12/11 12:08:43;;;;;;;52.88;16.88;;;1.60;99.90;;;;;;5024314;28;20030;-67
2022/12/11 12:11:26;;;;;;;39.78;14.23;;;1.60;99.90;;;;;;5024240;28;20028;-67
2022/12/11 12:14:12;;;;;;;46.78;15.70;;;1.60;99.90;;;;;;5027673;28;20064;-66
2022/12/11 12:17:15;;;;;;;42.60;15.13;;;1.70;99.90;;;;;;5021340;28;20026;-66
2022/12/11 12:19:55;;;;;;;49.17;16.63;;;1.70;99.90;;;;;;5026680;28;20076;-66
2022/12/11 12:22:40;;;;;;;49.13;16.73;;;1.70;99.90;;;;;;5022763;28;20025;-66
2022/12/11 12:25:14;;;;;;;53.55;17.17;;;1.70;99.90;;;;;;5022827;28;20026;-66
2022/12/11 12:28:07;;;;;;;39.13;15.32;;;1.70;99.90;;;;;;5027420;28;20024;-66
2022/12/11 12:30:54;;;;;;;53.70;16.95;;;1.60;99.90;;;;;;5025511;28;20022;-66
2022/12/11 12:33:46;;;;;;;49.90;18.25;;;1.50;99.90;;;;;;5021477;28;20040;-67
2022/12/11 12:36:26;;;;;;;47.50;16.53;;;1.50;99.90;;;;;;4992395;28;1099612;-67
2022/12/11 12:39:00;;;;;;;41.05;15.15;;;1.50;99.90;;;;;;5026822;28;20034;-66
2022/12/11 12:41:54;;;;;;;37.88;13.75;;;1.50;99.90;;;;;;5028314;28;20104;-67
2022/12/11 12:44:23;;;;;;;44.75;16.77;;;1.40;99.90;;;;;;5023738;28;20018;-67
2022/12/11 12:46:54;;;;;;;43.90;15.55;;;1.40;99.90;;;;;;5023529;28;20064;-67
2022/12/11 12:49:39;;;;;;;58.53;17.10;;;1.40;99.90;;;;;;5020163;28;20076;-66
2022/12/11 12:52:11;;;;;;;47.15;15.73;;;1.40;99.90;;;;;;5020353;28;20029;-67
2022/12/11 12:54:38;;;;;;;43.55;15.75;;;1.50;99.90;;;;;;5022516;28;20059;-67
2022/12/11 12:57:04;;;;;;;50.45;16.83;;;1.50;99.90;;;;;;5029241;28;20061;-66
2022/12/11 12:59:30;;;;;;;42.95;15.32;;;1.50;99.90;;;;;;5021706;28;20056;-66
2022/12/11 13:01:59;;;;;;;43.00;14.43;;;1.60;99.90;;;;;;5024151;28;20025;-66